• Join FlightAware (Why Join?)
  • Login
  • US Flag 
08:19AM EDT


 

Airport Tracker/Info


-or-


 

Live Flight TrackerFlight Track Log ✈ EJA941 ✈ 24-Jun-2013 ✈ KPIE - KMBS

Flight Track Log - Related Links

Times and Time Zones

All times are in EDT time to prevent confusion due to time zone crossing. See the EJA941 flight status page for this flight to view local times or setup timezone preferences in your user account.

Time Position Orientation Groundspeed Altitude Reporting Facility
EDT Latitude Longitude Course Direction KTS MPH feet Rate Location/Type
10:56AM 27.9000 -82.6833 221° Southwest 180 207 800  Level Tampa TRACON
10:56AM 27.8667 -82.7167 221° Southwest 220 253 1,700 720 Climbing Tampa TRACON
10:57AM 27.8167 -82.7667 221° Southwest 226 260 2,100 2,340 Climbing Tampa TRACON
10:58AM 27.8333 -82.8167 291° West 249 287 6,400 2,760 Climbing Tampa TRACON
11:01AM 27.9914 -82.7797 12° North 270 311 11,200 2,100 Climbing Jacksonville Center
11:02AM 28.0831 -82.7539 14° North 310 357 13,200 1,920 Climbing Jacksonville Center
11:03AM 28.1811 -82.7253 14° North 342 394 15,100 1,800 Climbing Jacksonville Center
11:04AM 28.2769 -82.6944 16° North 352 405 16,900 1,380 Climbing Jacksonville Center
11:05AM 28.3750 -82.6636 15° North 358 412 17,900 780 Climbing Jacksonville Center
11:06AM 28.4939 -82.6256 16° North 378 435 18,500 780 Climbing Jacksonville Center
11:07AM 28.6086 -82.6111 North 399 459 19,500 1,200 Climbing Jacksonville Center
11:08AM 28.7256 -82.6297 352° North 415 478 20,900 960 Climbing Jacksonville Center
11:09AM 28.8489 -82.6508 351° North 421 484 21,500 960 Climbing Jacksonville Center
11:10AM 28.9678 -82.6719 351° North 427 491 22,900 1,440 Climbing Jacksonville Center
11:11AM 29.0869 -82.6906 352° North 427 491 24,400 1,500 Climbing Jacksonville Center
11:12AM 29.2100 -82.7094 352° North 427 491 25,900 1,500 Climbing Jacksonville Center
11:13AM 29.3292 -82.7306 351° North 427 491 27,400 1,500 Climbing Jacksonville Center
11:14AM 29.4500 -82.7208 North 427 491 28,900 1,500 Climbing Jacksonville Center
11:15AM 29.5775 -82.7136 North 434 499 30,400 1,500 Climbing Jacksonville Center
11:16AM 29.7006 -82.7014 North 439 505 31,900 1,380 Climbing Jacksonville Center
11:17AM 29.8300 -82.6892 North 449 517 33,200 1,260 Climbing Jacksonville Center
11:18AM 29.9575 -82.7008 355° North 449 517 34,500 840 Climbing Jacksonville Center
11:19AM 30.0783 -82.6839 North 471 542 34,900 180 Climbing Jacksonville Center
11:20AM 30.2183 -82.6667 North 483 556 34,900  Level Jacksonville Center
11:21AM 30.3622 -82.6469 North 505 581 34,900 720 Level Jacksonville Center
11:22AM 30.5211 -82.6344 North 511 588 36,400 1,620 Climbing Jacksonville Center
11:23AM 30.6544 -82.6172 North 506 582 38,200 1,800 Climbing Jacksonville Center
11:24AM 30.7944 -82.6022 North 500 575 40,000 1,320 Climbing Jacksonville Center
11:25AM 30.9258 -82.5875 North 493 567 40,900 420 Climbing Jacksonville Center
11:26AM 31.0658 -82.5675 North 493 567 40,900  Level Jacksonville Center
11:27AM 31.2078 -82.5500 North 500 575 40,900  Level Jacksonville Center
11:28AM 31.3475 -82.5350 North 500 575 40,900  Level Jacksonville Center
11:29AM 31.4894 -82.5125 North 508 585 40,900  Level Jacksonville Center
11:30AM 31.7200 -82.4789 North 549 632 40,900  Level Atlanta Center
11:31AM 31.8594 -82.4567 North 524 603 40,900  Level Atlanta Center
11:32AM 32.0033 -82.4372 North 510 587 40,900  Level Atlanta Center
11:33AM 32.1408 -82.4150 North 504 580 40,900  Level Atlanta Center
11:34AM 32.2908 -82.3903 North 497 572 40,900  Level Atlanta Center
11:35AM 32.4344 -82.3703 North 503 579 40,900  Level Atlanta Center
11:36AM 32.5739 -82.3456 North 503 579 40,900  Level Atlanta Center
11:37AM 32.7156 -82.3206 North 503 579 40,900  Level Atlanta Center
11:38AM 32.8572 -82.3006 North 503 579 40,900  Level Atlanta Center
11:39AM 33.0014 -82.3025 359° North 503 579 40,900  Level Atlanta Center
11:40AM 33.1433 -82.3072 358° North 503 579 40,900  Level Atlanta Center
11:41AM 33.2875 -82.3117 359° North 509 586 40,900  Level Atlanta Center
11:42AM 33.4317 -82.3189 358° North 517 595 40,900  Level Atlanta Center
11:43AM 33.5736 -82.3233 359° North 517 595 40,900  Level Atlanta Center
11:44AM 33.7197 -82.3281 358° North 522 601 40,900  Level Atlanta Center
11:45AM 33.8472 -82.3331 358° North 516 594 40,900  Level Atlanta Center
11:46AM 33.9869 -82.3378 358° North 511 588 40,900  Level Atlanta Center
11:47AM 34.1311 -82.3447 358° North 511 588 40,900  Level Atlanta Center
11:48AM 34.2753 -82.3494 358° North 517 595 40,900  Level Atlanta Center
11:49AM 34.4150 -82.3542 358° North 511 588 40,900  Level Atlanta Center
11:50AM 34.5550 -82.3589 358° North 506 582 40,900  Level Atlanta Center
11:51AM 34.6989 -82.3636 358° North 506 582 40,900  Level Atlanta Center
11:52AM 34.8389 -82.3711 357° North 501 577 40,900  Level Atlanta Center
11:53AM 34.9808 -82.3758 358° North 501 577 40,900  Level Atlanta Center
11:54AM 35.1375 -82.3778 359° North 501 577 40,900  Level Atlanta Center
11:55AM 35.2692 -82.3903 356° North 515 593 40,900  Level Atlanta Center
11:56AM 35.4089 -82.3953 358° North 515 593 40,900  Level Atlanta Center
11:57AM 35.5531 -82.4000 358° North 520 598 40,900  Level Atlanta Center
11:58AM 35.7075 -82.4072 358° North 512 589 40,900  Level Atlanta Center
11:59AM 35.8472 -82.4069 360° North 507 583 40,900  Level Atlanta Center
12:00PM 35.9911 -82.4142 358° North 507 583 40,900  Level Atlanta Center
12:01PM 36.1292 -82.4269 356° North 502 578 40,900  Level Atlanta Center
12:02PM 36.2483 -82.4503 351° North 497 572 40,900  Level Atlanta Center
12:05PM 36.5867 -82.5086 352° North 495 570 40,900  Level Indianapolis Center
12:06PM 36.7222 -82.5322 352° North 495 570 41,000  Climbing Indianapolis Center
12:07PM 36.8581 -82.5569 352° North 496 571 40,900 -60 Descending Indianapolis Center
12:08PM 37.0147 -82.5831 352° North 491 565 40,900  Level Indianapolis Center
12:09PM 37.1481 -82.6072 352° North 488 562 40,900  Level Indianapolis Center
12:10PM 37.2819 -82.6314 352° North 487 560 40,900  Level Indianapolis Center
12:11PM 37.4156 -82.6561 352° North 485 558 40,900  Level Indianapolis Center
12:12PM 37.5494 -82.6808 352° North 487 560 40,900  Level Indianapolis Center
12:13PM 37.7072 -82.7097 352° North 492 566 41,000  Climbing Indianapolis Center
12:14PM 37.8422 -82.7356 351° North 490 564 40,900 -60 Descending Indianapolis Center
12:15PM 37.9786 -82.7589 352° North 492 566 40,900  Level Indianapolis Center
12:16PM 38.1128 -82.7833 352° North 488 562 40,900  Level Indianapolis Center
12:17PM 38.2478 -82.8086 352° North 487 560 41,000  Climbing Indianapolis Center
12:18PM 38.3825 -82.8353 351° North 488 562 40,900 -60 Descending Indianapolis Center
12:19PM 38.5397 -82.8644 352° North 489 563 40,900  Level Indianapolis Center
12:20PM 38.6758 -82.8897 352° North 488 562 40,900  Level Indianapolis Center
12:21PM 38.8086 -82.9144 352° North 481 554 40,900  Level Indianapolis Center
12:22PM 38.9383 -82.9403 351° North 471 542 41,000  Climbing Indianapolis Center
12:23PM 39.0667 -82.9647 352° North 466 536 40,900 -60 Descending Indianapolis Center
12:24PM 39.2133 -82.9911 352° North 479 551 40,900  Level Indianapolis Center
12:25PM 39.3431 -83.0150 352° North 470 541 40,900  Level Indianapolis Center
12:26PM 39.4728 -83.0406 351° North 468 539 40,900  Level Indianapolis Center
12:27PM 39.6019 -83.0650 352° North 468 539 40,900  Level Indianapolis Center
12:28PM 39.7328 -83.0892 352° North 473 544 40,900  Level Indianapolis Center
12:29PM 39.8639 -83.1142 352° North 476 548 40,900  Level Indianapolis Center
12:30PM 40.0142 -83.1439 351° North 470 541 40,900  Level Indianapolis Center
12:31PM 40.1433 -83.1692 351° North 469 540 40,900  Level Indianapolis Center
12:32PM 40.2736 -83.1947 351° North 471 542 40,900  Level Indianapolis Center
12:33PM 40.4056 -83.2214 351° North 475 547 40,900  Level Indianapolis Center
12:35PM 40.5375 -83.2467 352° North 476 548 40,900  Level Indianapolis Center
12:36PM 40.6708 -83.2733 351° North 480 552 40,900 -60 Level Indianapolis Center
12:37PM 40.8089 -83.3003 352° North 482 555 40,800 -780 Descending Indianapolis Center
12:37PM 40.9181 -83.3256 350° North 484 557 39,600 -1,560 Descending Cleveland Center
12:38PM 41.0489 -83.3503 352° North 476 548 38,100 -1,320 Descending Cleveland Center
12:39PM 41.1589 -83.3714 352° North 454 522 37,000 -600 Descending Cleveland Center
12:40PM 41.2894 -83.3992 351° North 454 522 36,900 -180 Descending Cleveland Center
12:41PM 41.4222 -83.4272 351° North 473 544 36,700 -540 Descending Cleveland Center
12:42PM 41.5569 -83.4553 351° North 484 557 35,900 -1,500 Descending Cleveland Center
12:43PM 41.6919 -83.4808 352° North 484 557 33,800 -2,280 Descending Cleveland Center
12:44PM 41.8289 -83.5092 351° North 484 557 31,400 -1,500 Descending Cleveland Center
12:45PM 41.9800 -83.5442 350° North 492 566 30,900 -1,500 Descending Cleveland Center
12:46PM 42.1211 -83.5703 352° North 506 582 28,400 -2,400 Descending Cleveland Center
12:47PM 42.2636 -83.5406 North 498 573 26,200 -1,860 Descending Cleveland Center
12:48PM 42.3917 -83.5072 11° North 486 559 24,700 -1,500 Descending Cleveland Center
12:49PM 42.5239 -83.4711 11° North 486 559 23,200 -1,560 Descending Cleveland Center
12:50PM 42.6514 -83.4572 North 473 544 21,600 -1,980 Descending Cleveland Center
12:51PM 42.7667 -83.5189 339° North 446 513 19,300 -2,400 Descending Cleveland Center
12:52PM 42.8842 -83.5756 341° North 446 513 16,900 -2,760 Descending Cleveland Center
12:53PM 42.9889 -83.6317 339° North 428 493 13,800 -2,460 Descending Cleveland Center
12:54PM 43.0853 -83.6903 336° Northwest 404 465 12,000 -1,440 Descending Cleveland Center
12:55PM 43.1714 -83.7403 337° Northwest 371 427 11,000 -1,080 Descending Cleveland Center
12:56PM 43.2536 -83.7900 336° Northwest 339 390 9,900 -1,500 Descending Cleveland Center
12:57PM 43.3169 -83.8306 335° Northwest 295 339 8,100 -1,980 Descending Cleveland Center
12:58PM 43.3908 -83.8744 337° Northwest 282 325 6,000 -2,340 Descending Cleveland Center
12:59PM 43.4667 -83.9183 337° Northwest 276 318 3,500 -1,740 Descending Cleveland Center
01:00PM 43.5281 -83.9561 336° Northwest 259 298 2,600 -540 Descending Cleveland Center
01:01PM 43.5667 -83.9928 325° Northwest 211 243 2,500 -660 Descending Cleveland Center
01:02PM 43.5589 -84.0439 258° West 155 178 1,300 -900 Descending Cleveland Center
01:03PM 43.5369 -84.0769 228° Southwest 111 128 700 -600 Descending Cleveland Center
01:05PM 43.5329 -84.0796 206° Southwest  Level Estimated
01:12PM 43.5329 -84.0796 166° South  Level Estimated